sensor_id;sensor_type;location;lat;lon;timestamp;temperature;humidity
50690;DHT22;54375;48.298;11.238;2023-03-01T00:05:45;0.20;82.30
50690;DHT22;54375;48.298;11.238;2023-03-01T00:20:50;0.20;82.40
50690;DHT22;54375;48.298;11.238;2023-03-01T00:35:53;0.20;82.70
50690;DHT22;54375;48.298;11.238;2023-03-01T00:50:55;0.10;83.00
50690;DHT22;54375;48.298;11.238;2023-03-01T01:05:59;0.10;83.60
50690;DHT22;54375;48.298;11.238;2023-03-01T01:21:05;0.10;83.00
50690;DHT22;54375;48.298;11.238;2023-03-01T01:36:08;0.10;83.10
50690;DHT22;54375;48.298;11.238;2023-03-01T01:51:13;0.10;83.20
50690;DHT22;54375;48.298;11.238;2023-03-01T02:06:22;0.00;83.10
50690;DHT22;54375;48.298;11.238;2023-03-01T02:21:40;0.00;83.00
50690;DHT22;54375;48.298;11.238;2023-03-01T02:36:47;0.00;83.10
50690;DHT22;54375;48.298;11.238;2023-03-01T02:52:01;0.00;82.90
50690;DHT22;54375;48.298;11.238;2023-03-01T03:07:06;0.00;83.10
50690;DHT22;54375;48.298;11.238;2023-03-01T03:22:09;-0.10;82.80
50690;DHT22;54375;48.298;11.238;2023-03-01T03:37:11;0.00;83.50
50690;DHT22;54375;48.298;11.238;2023-03-01T03:52:13;-0.10;82.60
50690;DHT22;54375;48.298;11.238;2023-03-01T04:07:16;-0.10;82.10
50690;DHT22;54375;48.298;11.238;2023-03-01T04:22:19;-0.20;81.50
50690;DHT22;54375;48.298;11.238;2023-03-01T04:37:21;-0.30;81.60
50690;DHT22;54375;48.298;11.238;2023-03-01T04:52:23;-0.40;81.60
50690;DHT22;54375;48.298;11.238;2023-03-01T05:07:26;-0.70;81.40
50690;DHT22;54375;48.298;11.238;2023-03-01T05:22:28;-1.10;82.50
50690;DHT22;54375;48.298;11.238;2023-03-01T05:37:30;-1.50;83.70
50690;DHT22;54375;48.298;11.238;2023-03-01T05:52:32;-1.70;84.50
50690;DHT22;54375;48.298;11.238;2023-03-01T06:07:35;-1.90;85.40
50690;DHT22;54375;48.298;11.238;2023-03-01T06:22:38;-2.00;86.10
50690;DHT22;54375;48.298;11.238;2023-03-01T06:37:41;-1.80;85.40
50690;DHT22;54375;48.298;11.238;2023-03-01T06:52:43;-1.50;84.20
50690;DHT22;54375;48.298;11.238;2023-03-01T07:07:46;-1.30;83.40
50690;DHT22;54375;48.298;11.238;2023-03-01T07:22:48;-1.20;82.20
50690;DHT22;54375;48.298;11.238;2023-03-01T07:37:51;-0.90;81.00
50690;DHT22;54375;48.298;11.238;2023-03-01T07:52:54;-0.80;79.60
50690;DHT22;54375;48.298;11.238;2023-03-01T08:07:56;-0.50;78.40
50690;DHT22;54375;48.298;11.238;2023-03-01T08:22:59;-0.30;77.90
50690;DHT22;54375;48.298;11.238;2023-03-01T08:38:01;-0.10;77.40
50690;DHT22;54375;48.298;11.238;2023-03-01T08:53:03;0.10;76.80
50690;DHT22;54375;48.298;11.238;2023-03-01T09:08:06;0.40;76.20
50690;DHT22;54375;48.298;11.238;2023-03-01T09:23:08;0.90;75.10
50690;DHT22;54375;48.298;11.238;2023-03-01T09:38:10;1.30;73.60
50690;DHT22;54375;48.298;11.238;2023-03-01T09:53:16;1.60;72.40
50690;DHT22;54375;48.298;11.238;2023-03-01T10:08:35;2.50;71.10
50690;DHT22;54375;48.298;11.238;2023-03-01T10:23:39;2.70;68.90
50690;DHT22;54375;48.298;11.238;2023-03-01T10:38:50;3.50;68.40
50690;DHT22;54375;48.298;11.238;2023-03-01T10:53:53;4.20;66.10
50690;DHT22;54375;48.298;11.238;2023-03-01T11:08:55;5.00;62.70
50690;DHT22;54375;48.298;11.238;2023-03-01T11:24:00;5.30;62.00
50690;DHT22;54375;48.298;11.238;2023-03-01T11:39:10;5.70;60.90
50690;DHT22;54375;48.298;11.238;2023-03-01T11:54:27;6.20;59.00
50690;DHT22;54375;48.298;11.238;2023-03-01T12:09:52;6.80;58.60
50690;DHT22;54375;48.298;11.238;2023-03-01T12:25:14;7.30;58.20
50690;DHT22;54375;48.298;11.238;2023-03-01T12:40:31;7.10;58.10
50690;DHT22;54375;48.298;11.238;2023-03-01T12:55:38;7.50;56.00
50690;DHT22;54375;48.298;11.238;2023-03-01T13:10:46;7.90;56.00
50690;DHT22;54375;48.298;11.238;2023-03-01T13:26:08;8.20;55.10
50690;DHT22;54375;48.298;11.238;2023-03-01T13:41:11;7.90;56.30
50690;DHT22;54375;48.298;11.238;2023-03-01T13:56:15;8.30;55.90
50690;DHT22;54375;48.298;11.238;2023-03-01T14:12:06;8.30;57.00
50690;DHT22;54375;48.298;11.238;2023-03-01T14:27:16;8.50;56.60
50690;DHT22;54375;48.298;11.238;2023-03-01T14:42:19;8.60;56.50
50690;DHT22;54375;48.298;11.238;2023-03-01T14:57:24;8.70;56.70
50690;DHT22;54375;48.298;11.238;2023-03-01T15:12:38;8.60;57.00
50690;DHT22;54375;48.298;11.238;2023-03-01T15:27:45;8.50;57.50
50690;DHT22;54375;48.298;11.238;2023-03-01T15:42:47;8.30;58.90
50690;DHT22;54375;48.298;11.238;2023-03-01T15:57:57;8.30;59.30
50690;DHT22;54375;48.298;11.238;2023-03-01T16:13:00;8.10;60.20
50690;DHT22;54375;48.298;11.238;2023-03-01T16:28:03;7.80;60.60
50690;DHT22;54375;48.298;11.238;2023-03-01T16:43:05;7.20;62.80
50690;DHT22;54375;48.298;11.238;2023-03-01T16:58:07;6.50;65.00
50690;DHT22;54375;48.298;11.238;2023-03-01T17:13:10;5.90;67.30
50690;DHT22;54375;48.298;11.238;2023-03-01T17:28:13;5.30;69.60
50690;DHT22;54375;48.298;11.238;2023-03-01T17:43:16;5.00;71.20
50690;DHT22;54375;48.298;11.238;2023-03-01T17:58:18;4.80;71.50
50690;DHT22;54375;48.298;11.238;2023-03-01T18:13:21;4.60;71.30
50690;DHT22;54375;48.298;11.238;2023-03-01T18:28:23;4.20;72.20
50690;DHT22;54375;48.298;11.238;2023-03-01T18:43:25;3.70;73.60
50690;DHT22;54375;48.298;11.238;2023-03-01T18:58:28;3.30;74.90
50690;DHT22;54375;48.298;11.238;2023-03-01T19:13:31;2.80;77.30
50690;DHT22;54375;48.298;11.238;2023-03-01T19:28:34;2.60;78.70
50690;DHT22;54375;48.298;11.238;2023-03-01T19:43:37;2.40;80.30
50690;DHT22;54375;48.298;11.238;2023-03-01T19:58:39;2.10;80.80
50690;DHT22;54375;48.298;11.238;2023-03-01T20:13:42;1.90;82.50
50690;DHT22;54375;48.298;11.238;2023-03-01T20:28:45;1.60;83.30
50690;DHT22;54375;48.298;11.238;2023-03-01T20:43:48;1.50;85.00
50690;DHT22;54375;48.298;11.238;2023-03-01T20:58:50;1.30;85.80
50690;DHT22;54375;48.298;11.238;2023-03-01T21:13:53;1.20;86.90
50690;DHT22;54375;48.298;11.238;2023-03-01T21:28:57;1.10;87.60
50690;DHT22;54375;48.298;11.238;2023-03-01T21:44:01;1.10;88.60
50690;DHT22;54375;48.298;11.238;2023-03-01T21:59:03;0.90;88.70
50690;DHT22;54375;48.298;11.238;2023-03-01T22:14:07;0.90;90.10
50690;DHT22;54375;48.298;11.238;2023-03-01T22:29:11;0.80;90.10
50690;DHT22;54375;48.298;11.238;2023-03-01T22:44:16;0.80;90.40
50690;DHT22;54375;48.298;11.238;2023-03-01T22:59:20;0.70;90.20
50690;DHT22;54375;48.298;11.238;2023-03-01T23:14:24;0.60;90.40
50690;DHT22;54375;48.298;11.238;2023-03-01T23:29:26;0.50;90.50
50690;DHT22;54375;48.298;11.238;2023-03-01T23:44:29;0.30;90.70
50690;DHT22;54375;48.298;11.238;2023-03-01T23:59:32;0.10;91.00
